createdAt,value
2022-12-15T00:02:38.888Z,10.90
2022-12-15T00:05:25.714Z,10.38
2022-12-15T00:08:11.106Z,9.93
2022-12-15T00:10:56.831Z,10.98
2022-12-15T00:13:42.763Z,9.65
2022-12-15T00:16:28.729Z,9.50
2022-12-15T00:19:14.233Z,10.45
2022-12-15T00:21:59.815Z,10.73
2022-12-15T00:24:49.740Z,9.70
2022-12-15T00:27:35.715Z,9.82
2022-12-15T00:30:23.079Z,10.38
2022-12-15T00:33:09.077Z,10.05
2022-12-15T00:35:56.213Z,10.30
2022-12-15T00:38:44.261Z,9.43
2022-12-15T00:41:13.958Z,10.40
2022-12-15T00:43:41.405Z,10.38
2022-12-15T00:46:27.503Z,10.57
2022-12-15T00:48:54.708Z,10.95
2022-12-15T00:51:21.742Z,10.90
2022-12-15T00:54:08.417Z,11.60
2022-12-15T00:56:56.513Z,9.07
2022-12-15T00:59:41.971Z,11.02
2022-12-15T01:02:27.389Z,9.77
2022-12-15T01:05:13.170Z,11.45
2022-12-15T01:07:58.630Z,10.32
2022-12-15T01:10:44.595Z,10.23
2022-12-15T01:13:32.067Z,11.23
2022-12-15T01:16:17.824Z,9.70
2022-12-15T01:19:03.141Z,10.02
2022-12-15T01:21:32.182Z,9.55
2022-12-15T01:23:59.135Z,9.90
2022-12-15T01:26:26.089Z,10.38
2022-12-15T01:28:53.126Z,10.32
2022-12-15T01:31:20.145Z,9.55
2022-12-15T01:33:47.340Z,11.10
2022-12-15T01:36:14.374Z,11.77
2022-12-15T01:38:41.429Z,9.25
2022-12-15T01:41:12.350Z,10.75
2022-12-15T01:43:41.172Z,10.43
2022-12-15T01:46:17.783Z,9.55
2022-12-15T01:48:59.736Z,9.30
2022-12-15T01:51:32.156Z,9.50
2022-12-15T01:54:11.045Z,9.95
2022-12-15T01:56:43.222Z,10.15
2022-12-15T01:59:15.143Z,10.38
2022-12-15T02:01:42.413Z,9.75
2022-12-15T02:04:10.059Z,9.88
2022-12-15T02:06:37.511Z,10.30
2022-12-15T02:09:07.544Z,9.20
2022-12-15T02:11:49.468Z,10.50
2022-12-15T02:14:39.930Z,10.73
2022-12-15T02:17:22.996Z,10.07
2022-12-15T02:20:06.190Z,10.80
2022-12-15T02:22:48.244Z,10.00
2022-12-15T02:25:38.286Z,10.77
2022-12-15T02:28:10.332Z,10.43
2022-12-15T02:30:40.314Z,10.50
2022-12-15T02:33:15.078Z,9.73
2022-12-15T02:36:02.188Z,9.75
2022-12-15T02:38:37.073Z,9.98
2022-12-15T02:41:10.119Z,10.60
2022-12-15T02:43:38.964Z,11.95
2022-12-15T02:46:32.218Z,11.18
2022-12-15T02:49:23.810Z,11.83
2022-12-15T02:52:11.290Z,9.52
2022-12-15T02:55:01.839Z,9.75
2022-12-15T02:57:43.974Z,10.05
2022-12-15T03:00:12.672Z,10.13
2022-12-15T03:02:44.410Z,10.05
2022-12-15T03:05:13.105Z,10.45
2022-12-15T03:07:42.707Z,10.10
2022-12-15T03:10:13.065Z,10.98
2022-12-15T03:12:40.196Z,10.32
2022-12-15T03:15:07.764Z,10.75
2022-12-15T03:17:34.744Z,10.32
2022-12-15T03:20:02.757Z,8.77
2022-12-15T03:22:29.868Z,9.38
2022-12-15T03:24:57.218Z,10.00
2022-12-15T03:27:24.242Z,9.85
2022-12-15T03:29:51.272Z,10.00
2022-12-15T03:32:18.374Z,10.77
2022-12-15T03:34:45.556Z,10.18
2022-12-15T03:37:12.536Z,9.30
2022-12-15T03:39:39.543Z,10.63
2022-12-15T03:42:07.445Z,10.45
2022-12-15T03:44:34.600Z,11.45
2022-12-15T03:47:03.700Z,10.48
2022-12-15T03:49:31.059Z,11.43
2022-12-15T03:51:58.075Z,10.90
2022-12-15T03:54:25.138Z,10.55
2022-12-15T03:56:52.166Z,10.82
2022-12-15T03:59:19.480Z,10.00
2022-12-15T04:01:49.082Z,10.70
2022-12-15T04:04:16.356Z,10.60
2022-12-15T04:06:43.447Z,10.88
2022-12-15T04:09:10.923Z,12.15
2022-12-15T04:11:37.992Z,10.38
2022-12-15T04:14:06.207Z,11.55
2022-12-15T04:16:33.279Z,11.18
2022-12-15T04:19:18.681Z,11.10
2022-12-15T04:21:45.774Z,12.68
2022-12-15T04:24:31.666Z,11.15
2022-12-15T04:27:17.092Z,10.82
2022-12-15T04:30:02.450Z,10.88
2022-12-15T04:32:49.841Z,13.38
2022-12-15T04:35:37.401Z,12.18
2022-12-15T04:38:22.780Z,10.93
2022-12-15T04:41:08.545Z,12.23
2022-12-15T04:43:54.131Z,10.40
2022-12-15T04:46:39.612Z,11.52
2022-12-15T04:49:25.735Z,11.35
2022-12-15T04:52:11.127Z,11.00
2022-12-15T04:54:56.515Z,11.13
2022-12-15T04:57:41.948Z,11.32
2022-12-15T05:00:28.424Z,11.32
2022-12-15T05:03:29.961Z,12.05
2022-12-15T05:06:17.236Z,12.15
2022-12-15T05:09:02.622Z,11.55
2022-12-15T05:11:48.567Z,11.52
2022-12-15T05:14:33.883Z,10.73
2022-12-15T05:17:19.221Z,11.07
2022-12-15T05:20:04.685Z,11.68
2022-12-15T05:22:49.964Z,11.93
2022-12-15T05:25:36.298Z,11.88
2022-12-15T05:28:27.426Z,10.55
2022-12-15T05:31:13.010Z,11.32
2022-12-15T05:33:40.269Z,15.00
2022-12-15T05:36:07.758Z,17.48
2022-12-15T05:38:35.556Z,17.15
2022-12-15T05:41:02.841Z,13.25
2022-12-15T05:43:30.378Z,15.18
2022-12-15T05:46:03.149Z,18.13
2022-12-15T05:48:30.173Z,13.82
2022-12-15T05:50:57.156Z,15.20
2022-12-15T05:53:24.184Z,13.73
2022-12-15T05:55:51.189Z,11.93
2022-12-15T05:58:18.211Z,11.57
2022-12-15T06:00:45.171Z,12.18
2022-12-15T06:03:12.272Z,12.38
2022-12-15T06:05:40.121Z,11.63
2022-12-15T06:08:07.425Z,12.23
2022-12-15T06:10:34.428Z,12.63
2022-12-15T06:13:01.748Z,12.02
2022-12-15T06:15:28.748Z,13.40
2022-12-15T06:17:55.837Z,14.45
2022-12-15T06:20:22.917Z,50.05
2022-12-15T06:22:50.316Z,51.58
2022-12-15T06:25:17.784Z,58.90
2022-12-15T06:27:44.821Z,36.60
2022-12-15T06:30:12.381Z,19.48
2022-12-15T06:32:39.689Z,14.00
2022-12-15T06:35:07.293Z,22.23
2022-12-15T06:37:35.507Z,16.30
2022-12-15T06:40:02.720Z,13.10
2022-12-15T06:42:30.081Z,14.80
2022-12-15T06:44:57.132Z,15.35
2022-12-15T06:47:24.118Z,14.25
2022-12-15T06:49:51.394Z,39.47
2022-12-15T06:52:18.425Z,20.98
2022-12-15T06:54:45.474Z,15.23
2022-12-15T06:57:12.455Z,16.38
2022-12-15T06:59:39.646Z,15.40
2022-12-15T07:02:21.112Z,24.70
2022-12-15T07:04:50.842Z,16.02
2022-12-15T07:07:17.822Z,17.30
2022-12-15T07:09:44.816Z,17.27
2022-12-15T07:12:12.574Z,21.20
2022-12-15T07:14:39.918Z,27.25
2022-12-15T07:17:07.158Z,26.35
2022-12-15T07:19:34.189Z,37.40
2022-12-15T07:22:01.410Z,20.00
2022-12-15T07:24:28.684Z,18.70
2022-12-15T07:26:55.751Z,22.35
2022-12-15T07:29:23.628Z,31.98
2022-12-15T07:31:51.099Z,23.80
2022-12-15T07:34:18.335Z,19.00
2022-12-15T07:36:51.553Z,20.02
2022-12-15T07:39:19.294Z,18.33
2022-12-15T07:41:46.737Z,18.55
2022-12-15T07:44:14.837Z,19.00
2022-12-15T07:46:46.729Z,18.35
2022-12-15T07:49:13.999Z,21.08
2022-12-15T07:51:41.593Z,19.90
2022-12-15T07:54:11.395Z,16.08
2022-12-15T07:56:39.617Z,14.82
2022-12-15T07:59:07.582Z,17.58
2022-12-15T08:01:37.801Z,22.30
2022-12-15T08:04:07.493Z,17.88
2022-12-15T08:06:35.168Z,14.98
2022-12-15T08:09:02.324Z,14.18
2022-12-15T08:11:33.925Z,13.25
2022-12-15T08:14:03.089Z,16.25
2022-12-15T08:16:31.782Z,16.75
2022-12-15T08:18:58.961Z,15.85
2022-12-15T08:21:26.022Z,29.40
2022-12-15T08:23:53.161Z,27.85
2022-12-15T08:26:23.832Z,25.92
2022-12-15T08:31:23.268Z,18.45
2022-12-15T08:33:51.209Z,17.98
2022-12-15T08:36:19.653Z,16.38
2022-12-15T08:38:47.207Z,19.15
2022-12-15T08:41:17.502Z,25.70
2022-12-15T08:43:48.561Z,25.42
2022-12-15T08:46:18.352Z,24.70
2022-12-15T08:48:46.628Z,20.85
2022-12-15T08:51:14.334Z,29.08
2022-12-15T08:53:41.571Z,20.95
2022-12-15T08:56:18.421Z,15.95
2022-12-15T08:58:46.738Z,18.13
2022-12-15T09:01:23.941Z,17.58
2022-12-15T09:03:53.835Z,23.33
2022-12-15T09:06:24.274Z,24.20
2022-12-15T09:08:54.803Z,21.67
2022-12-15T09:11:22.479Z,26.85
2022-12-15T09:13:49.889Z,27.75
2022-12-15T09:16:20.918Z,22.30
2022-12-15T09:18:52.946Z,20.80
2022-12-15T09:21:26.086Z,20.95
2022-12-15T09:23:55.905Z,18.63
2022-12-15T09:26:23.800Z,21.25
2022-12-15T09:28:51.948Z,17.55
2022-12-15T09:31:25.218Z,19.58
2022-12-15T09:33:54.227Z,19.60
2022-12-15T09:36:22.453Z,21.10
2022-12-15T09:38:49.820Z,18.83
2022-12-15T09:41:27.124Z,21.35
2022-12-15T09:44:15.734Z,21.08
2022-12-15T09:46:59.706Z,19.25
2022-12-15T09:49:53.121Z,20.75
2022-12-15T09:52:25.354Z,19.77
2022-12-15T09:54:52.905Z,21.40
2022-12-15T09:57:31.624Z,19.08
2022-12-15T10:00:16.644Z,23.13
2022-12-15T10:02:52.590Z,17.95
2022-12-15T10:06:07.348Z,20.63
2022-12-15T10:08:30.893Z,20.42
2022-12-15T10:11:01.701Z,20.95
2022-12-15T10:13:34.330Z,19.25
2022-12-15T10:16:16.648Z,20.17
2022-12-15T10:19:07.454Z,19.65
2022-12-15T10:21:37.358Z,21.48
2022-12-15T10:24:31.434Z,21.40
2022-12-15T10:27:30.236Z,20.92
2022-12-15T10:30:02.675Z,20.33
2022-12-15T10:32:50.429Z,21.67
2022-12-15T10:35:22.992Z,20.63
2022-12-15T10:37:50.120Z,20.13
2022-12-15T10:40:19.804Z,22.92
2022-12-15T10:42:49.369Z,21.30
2022-12-15T10:45:36.456Z,20.92
2022-12-15T10:48:06.969Z,23.38
2022-12-15T10:50:37.479Z,21.30
2022-12-15T10:53:09.712Z,24.67
2022-12-15T10:55:42.317Z,27.50
2022-12-15T10:58:22.486Z,26.70
2022-12-15T11:01:14.563Z,22.52
2022-12-15T11:03:42.034Z,23.80
2022-12-15T11:06:24.215Z,21.80
2022-12-15T11:08:54.430Z,21.08
2022-12-15T11:12:03.603Z,19.88
2022-12-15T11:14:43.802Z,20.27
2022-12-15T11:17:17.193Z,18.40
2022-12-15T11:19:52.219Z,19.48
2022-12-15T11:22:46.504Z,19.40
2022-12-15T11:25:22.983Z,18.85
2022-12-15T11:27:54.188Z,27.95
2022-12-15T11:30:24.458Z,27.63
2022-12-15T11:32:55.620Z,25.27
2022-12-15T11:35:30.665Z,20.65
2022-12-15T11:38:08.828Z,18.50
2022-12-15T11:40:43.494Z,18.70
2022-12-15T11:43:31.617Z,18.75
2022-12-15T11:46:23.066Z,17.38
2022-12-15T11:49:14.851Z,17.50
2022-12-15T11:51:50.340Z,16.65
2022-12-15T11:54:40.495Z,18.38
2022-12-15T11:57:32.781Z,16.58
2022-12-15T12:00:19.422Z,17.58
2022-12-15T12:02:55.747Z,18.65
2022-12-15T12:05:31.758Z,16.65
2022-12-15T12:08:27.939Z,35.03
2022-12-15T12:11:13.630Z,40.90
2022-12-15T12:14:09.658Z,42.20
2022-12-15T12:17:01.549Z,34.88
2022-12-15T12:19:42.927Z,33.72
2022-12-15T12:22:20.710Z,24.60
2022-12-15T12:25:14.481Z,17.40
2022-12-15T12:27:52.971Z,18.25
2022-12-15T12:30:22.541Z,17.17
2022-12-15T12:33:03.241Z,17.63
2022-12-15T12:35:56.072Z,19.02
2022-12-15T12:38:29.782Z,16.80
2022-12-15T12:41:20.528Z,19.05
2022-12-15T12:44:00.816Z,17.70
2022-12-15T12:46:37.347Z,17.55
2022-12-15T12:49:18.717Z,17.23
2022-12-15T12:54:34.036Z,17.17
2022-12-15T12:57:01.885Z,15.85
2022-12-15T12:59:28.847Z,15.40
2022-12-15T13:02:21.996Z,18.38
2022-12-15T13:04:52.275Z,17.03
2022-12-15T13:07:37.772Z,16.75
2022-12-15T13:10:07.849Z,17.38
2022-12-15T13:12:59.235Z,17.13
2022-12-15T13:15:37.289Z,19.02
2022-12-15T13:18:16.075Z,17.30
2022-12-15T13:20:45.103Z,16.45
2022-12-15T13:23:21.918Z,19.90
2022-12-15T13:25:57.799Z,18.98
2022-12-15T13:28:35.665Z,20.08
2022-12-15T13:31:25.240Z,18.92
2022-12-15T13:33:52.627Z,19.33
2022-12-15T13:36:38.092Z,19.10
2022-12-15T13:39:28.076Z,20.40
2022-12-15T13:42:31.416Z,19.52
2022-12-15T13:44:48.878Z,19.02
2022-12-15T13:47:18.850Z,19.38
2022-12-15T13:50:01.466Z,20.80
2022-12-15T13:53:16.683Z,22.50
2022-12-15T13:55:28.239Z,21.42
2022-12-15T13:58:17.388Z,24.88
2022-12-15T14:00:58.105Z,25.80
2022-12-15T14:03:26.422Z,24.13
2022-12-15T14:08:45.081Z,25.08
2022-12-15T14:11:51.213Z,27.73
2022-12-15T14:14:24.386Z,24.88
2022-12-15T14:16:54.502Z,23.92
2022-12-15T14:19:21.612Z,28.05
2022-12-15T14:21:57.061Z,22.33
2022-12-15T14:24:38.632Z,22.80
2022-12-15T14:27:10.031Z,22.58
2022-12-15T14:29:37.154Z,21.77
2022-12-15T14:32:05.881Z,23.02
2022-12-15T14:34:39.306Z,26.10
2022-12-15T14:37:18.888Z,23.83
2022-12-15T14:39:50.379Z,22.95
2022-12-15T14:42:23.215Z,22.80
2022-12-15T14:44:57.519Z,24.25
2022-12-15T14:47:38.855Z,22.23
2022-12-15T14:50:13.611Z,23.98
2022-12-15T14:52:43.450Z,33.28
2022-12-15T14:55:31.803Z,27.77
2022-12-15T14:57:59.713Z,25.80
2022-12-15T15:00:36.717Z,24.17
2022-12-15T15:03:14.143Z,28.63
2022-12-15T15:03:19.956Z,25.92
2022-12-15T15:05:57.918Z,25.40
2022-12-15T15:08:34.868Z,23.38
2022-12-15T15:11:21.216Z,23.42
2022-12-15T15:13:48.423Z,24.92
2022-12-15T15:16:18.875Z,25.10
2022-12-15T15:18:51.999Z,24.02
2022-12-15T15:21:22.751Z,24.50
2022-12-15T15:24:29.690Z,24.70
2022-12-15T15:27:35.531Z,24.63
2022-12-15T15:30:14.616Z,25.65
2022-12-15T15:32:59.056Z,24.73
2022-12-15T15:35:30.906Z,26.08
2022-12-15T15:38:27.161Z,25.10
2022-12-15T15:40:57.036Z,26.75
2022-12-15T15:43:25.747Z,24.25
2022-12-15T15:46:00.654Z,24.58
2022-12-15T15:48:32.565Z,25.90
2022-12-15T15:51:00.765Z,25.40
2022-12-15T15:53:31.745Z,25.48
2022-12-15T15:56:00.073Z,25.67
2022-12-15T15:58:27.105Z,26.33
2022-12-15T16:00:54.190Z,27.75
2022-12-15T16:03:21.463Z,27.20
2022-12-15T16:05:48.985Z,30.92
2022-12-15T16:08:20.011Z,33.20
2022-12-15T16:10:48.768Z,30.73
2022-12-15T16:13:25.636Z,31.23
2022-12-15T16:15:53.363Z,31.90
2022-12-15T16:18:21.150Z,36.80
2022-12-15T16:20:50.776Z,48.47
2022-12-15T16:23:22.173Z,54.85
2022-12-15T16:25:54.498Z,34.53
2022-12-15T16:28:30.832Z,29.42
2022-12-15T16:30:58.879Z,29.52
2022-12-15T16:33:26.056Z,28.05
2022-12-15T16:35:53.592Z,30.02
2022-12-15T16:38:26.761Z,31.25
2022-12-15T16:40:55.554Z,33.13
2022-12-15T16:43:26.931Z,31.05
2022-12-15T16:45:56.322Z,32.40
2022-12-15T16:48:23.476Z,31.65
2022-12-15T16:50:53.724Z,30.75
2022-12-15T16:53:26.700Z,29.92
2022-12-15T16:55:59.539Z,30.45
2022-12-15T16:58:28.780Z,29.80
2022-12-15T17:00:56.130Z,31.38
2022-12-15T17:03:25.893Z,32.38
2022-12-15T17:05:56.319Z,34.65
2022-12-15T17:08:34.707Z,34.05
2022-12-15T17:11:02.806Z,31.08
2022-12-15T17:13:45.578Z,34.17
2022-12-15T17:16:14.483Z,34.30
2022-12-15T17:18:43.013Z,31.75
2022-12-15T17:21:11.353Z,32.13
2022-12-15T17:23:39.960Z,31.15
2022-12-15T17:26:25.941Z,28.65
2022-12-15T17:28:56.522Z,32.05
2022-12-15T17:31:27.682Z,32.78
2022-12-15T17:36:26.762Z,31.67
2022-12-15T17:38:59.164Z,31.15
2022-12-15T17:41:59.312Z,31.40
2022-12-15T17:44:35.421Z,34.80
2022-12-15T17:47:09.178Z,34.47
2022-12-15T17:49:38.900Z,34.58
2022-12-15T17:52:28.423Z,32.28
2022-12-15T17:54:56.312Z,35.10
2022-12-15T17:57:23.424Z,35.80
2022-12-15T17:59:50.437Z,32.55
2022-12-15T18:02:17.649Z,35.30
2022-12-15T18:04:45.008Z,39.55
2022-12-15T18:07:16.521Z,41.55
2022-12-15T18:09:44.227Z,39.55
2022-12-15T18:12:25.249Z,49.97
2022-12-15T18:14:53.053Z,41.88
2022-12-15T18:17:20.699Z,44.35
2022-12-15T18:19:48.431Z,32.40
2022-12-15T18:22:23.466Z,37.90
2022-12-15T18:24:52.818Z,36.65
2022-12-15T18:27:23.287Z,34.50
2022-12-15T18:29:50.626Z,31.85
2022-12-15T18:32:19.234Z,29.42
2022-12-15T18:34:46.805Z,29.92
2022-12-15T18:37:16.665Z,30.67
2022-12-15T18:39:43.888Z,29.35
2022-12-15T18:42:15.840Z,30.15
2022-12-15T18:44:47.761Z,29.38
2022-12-15T18:47:17.142Z,33.40
2022-12-15T18:49:44.675Z,32.85
2022-12-15T18:52:17.254Z,32.67
2022-12-15T18:54:44.934Z,33.97
2022-12-15T18:57:30.540Z,39.63
2022-12-15T19:00:18.591Z,36.83
2022-12-15T19:02:45.810Z,35.65
2022-12-15T19:05:28.718Z,33.88
2022-12-15T19:08:13.239Z,30.02
2022-12-15T19:10:48.288Z,33.15
2022-12-15T19:13:17.829Z,34.67
2022-12-15T19:15:45.243Z,32.47
2022-12-15T19:18:36.603Z,33.40
2022-12-15T19:21:42.097Z,31.25
2022-12-15T19:24:54.872Z,29.60
2022-12-15T19:27:26.539Z,29.05
2022-12-15T19:29:54.586Z,30.98
2022-12-15T19:32:22.899Z,30.88
2022-12-15T19:34:50.251Z,31.38
2022-12-15T19:37:26.967Z,31.38
2022-12-15T19:39:57.608Z,30.27
2022-12-15T19:42:31.173Z,32.50
2022-12-15T19:44:58.654Z,31.85
2022-12-15T19:47:25.701Z,34.03
2022-12-15T19:49:52.923Z,33.28
2022-12-15T19:52:22.235Z,32.38
2022-12-15T19:54:50.753Z,32.45
2022-12-15T19:57:19.390Z,30.48
2022-12-15T19:59:46.641Z,29.40
2022-12-15T20:02:19.496Z,29.77
2022-12-15T20:04:48.109Z,55.47
2022-12-15T20:07:18.620Z,48.95
2022-12-15T20:09:46.747Z,36.15
2022-12-15T20:12:18.502Z,34.92
2022-12-15T20:14:47.057Z,33.50
2022-12-15T20:17:14.704Z,37.35
2022-12-15T20:19:42.924Z,40.42
2022-12-15T20:22:19.574Z,39.83
2022-12-15T20:24:47.401Z,35.67
2022-12-15T20:27:17.055Z,34.28
2022-12-15T20:29:44.844Z,31.83
2022-12-15T20:32:20.097Z,31.33
2022-12-15T20:34:48.012Z,31.67
2022-12-15T20:37:26.888Z,31.85
2022-12-15T20:39:57.350Z,39.42
2022-12-15T20:42:25.291Z,31.00
2022-12-15T20:44:52.281Z,32.28
2022-12-15T20:47:24.980Z,31.55
2022-12-15T20:49:54.188Z,31.05
2022-12-15T20:52:24.405Z,31.15
2022-12-15T20:54:52.717Z,32.10
2022-12-15T20:57:20.290Z,31.17
2022-12-15T20:59:47.680Z,32.55
2022-12-15T21:02:20.443Z,32.22
2022-12-15T21:04:48.291Z,32.63
2022-12-15T21:07:15.505Z,31.98
2022-12-15T21:09:42.701Z,36.75
2022-12-15T21:12:28.146Z,35.22
2022-12-15T21:14:55.368Z,44.63
2022-12-15T21:17:24.312Z,33.90
2022-12-15T21:19:52.118Z,30.65
2022-12-15T21:22:23.762Z,30.92
2022-12-15T21:24:53.058Z,29.58
2022-12-15T21:27:21.488Z,29.90
2022-12-15T21:29:52.706Z,31.63
2022-12-15T21:32:21.141Z,32.45
2022-12-15T21:34:49.738Z,31.85
2022-12-15T21:37:28.467Z,34.35
2022-12-15T21:39:56.525Z,33.65
2022-12-15T21:42:24.275Z,34.72
2022-12-15T21:44:51.290Z,30.63
2022-12-15T21:47:24.835Z,29.15
2022-12-15T21:49:52.338Z,38.45
2022-12-15T21:52:21.157Z,40.03
2022-12-15T21:54:48.271Z,45.67
2022-12-15T21:57:15.270Z,37.88
2022-12-15T21:59:42.933Z,32.05
2022-12-15T22:02:25.406Z,31.05
2022-12-15T22:04:52.727Z,31.05
2022-12-15T22:07:22.092Z,30.63
2022-12-15T22:09:49.276Z,31.83
2022-12-15T22:12:25.667Z,31.35
2022-12-15T22:14:52.837Z,30.27
2022-12-15T22:17:22.041Z,34.42
2022-12-15T22:19:49.290Z,29.83
2022-12-15T22:22:16.597Z,29.05
2022-12-15T22:24:43.745Z,30.38
2022-12-15T22:27:22.591Z,28.15
2022-12-15T22:29:50.401Z,30.52
2022-12-15T22:32:18.054Z,29.95
2022-12-15T22:34:46.102Z,28.63
2022-12-15T22:37:13.132Z,29.17
2022-12-15T22:39:40.212Z,29.08
2022-12-15T22:42:08.467Z,29.35
2022-12-15T22:44:37.667Z,36.20
2022-12-15T22:47:10.388Z,33.08
2022-12-15T22:49:40.088Z,32.30
2022-12-15T22:52:17.099Z,31.35
2022-12-15T22:54:45.909Z,35.00
2022-12-15T22:57:21.259Z,35.50
2022-12-15T22:59:54.737Z,33.20
2022-12-15T23:02:21.941Z,32.35
2022-12-15T23:04:49.016Z,30.48
2022-12-15T23:07:16.030Z,31.95
2022-12-15T23:09:43.041Z,32.58
2022-12-15T23:12:10.145Z,31.48
2022-12-15T23:14:55.813Z,30.58
2022-12-15T23:17:22.834Z,29.60
2022-12-15T23:19:49.797Z,30.23
2022-12-15T23:22:16.794Z,30.95
2022-12-15T23:24:43.863Z,31.42
2022-12-15T23:27:11.642Z,28.90
2022-12-15T23:29:38.681Z,29.65
2022-12-15T23:32:08.982Z,31.13
2022-12-15T23:34:36.961Z,29.75
2022-12-15T23:37:03.979Z,31.88
2022-12-15T23:39:31.015Z,31.92
2022-12-15T23:41:58.033Z,30.95
2022-12-15T23:44:25.079Z,32.63
2022-12-15T23:46:52.187Z,33.33
2022-12-15T23:49:19.298Z,36.22
2022-12-15T23:51:46.309Z,33.95
2022-12-15T23:54:13.897Z,33.60
2022-12-15T23:56:41.101Z,31.92
2022-12-15T23:59:08.134Z,32.63
